createdAt,value
2016-09-01T00:00:13.099Z,18.9
2016-09-01T00:01:13.089Z,18.86
2016-09-01T00:02:13.791Z,18.73
2016-09-01T00:03:13.034Z,18.8
2016-09-01T00:04:13.016Z,18.73
2016-09-01T00:05:13.000Z,18.8
2016-09-01T00:06:12.973Z,18.75
2016-09-01T00:07:12.956Z,18.77
2016-09-01T00:08:12.933Z,18.73
2016-09-01T00:09:12.914Z,18.73
2016-09-01T00:10:12.893Z,18.71
2016-09-01T00:11:12.873Z,18.65
2016-09-01T00:12:12.851Z,18.73
2016-09-01T00:13:12.839Z,18.66
2016-09-01T00:14:12.814Z,18.6
2016-09-01T00:15:12.789Z,18.66
2016-09-01T00:16:12.770Z,18.71
2016-09-01T00:17:12.749Z,18.58
2016-09-01T00:18:12.729Z,18.6
2016-09-01T00:19:12.709Z,18.56
2016-09-01T00:20:12.699Z,18.7
2016-09-01T00:21:12.668Z,18.62
2016-09-01T00:22:12.646Z,18.65
2016-09-01T00:23:12.630Z,18.65
2016-09-01T00:24:12.614Z,18.62
2016-09-01T00:25:12.594Z,18.6
2016-09-01T00:26:12.564Z,18.73
2016-09-01T00:27:12.544Z,18.66
2016-09-01T00:28:12.523Z,18.68
2016-09-01T00:29:12.506Z,18.62
2016-09-01T00:30:12.760Z,18.6
2016-09-01T00:31:12.461Z,18.6
2016-09-01T00:32:12.442Z,18.62
2016-09-01T00:33:12.421Z,18.6
2016-09-01T00:34:12.397Z,18.59
2016-09-01T00:35:12.382Z,18.63
2016-09-01T00:36:12.360Z,18.62
2016-09-01T00:37:12.336Z,18.66
2016-09-01T00:38:12.320Z,18.59
2016-09-01T00:39:12.296Z,18.58
2016-09-01T00:40:12.279Z,18.62
2016-09-01T00:41:12.258Z,18.59
2016-09-01T00:42:12.237Z,18.68
2016-09-01T00:43:12.223Z,18.66
2016-09-01T00:44:12.195Z,18.65
2016-09-01T00:45:12.278Z,18.65
2016-09-01T00:46:12.154Z,18.73
2016-09-01T00:47:12.134Z,18.65
2016-09-01T00:48:12.811Z,18.63
2016-09-01T00:49:12.093Z,18.66
2016-09-01T00:50:12.073Z,18.7
2016-09-01T00:51:12.047Z,18.58
2016-09-01T00:52:12.029Z,18.65
2016-09-01T00:53:12.017Z,18.58
2016-09-01T00:54:11.993Z,18.62
2016-09-01T00:55:11.967Z,18.56
2016-09-01T00:56:11.947Z,18.71
2016-09-01T00:57:11.923Z,18.66
2016-09-01T00:58:11.906Z,18.55
2016-09-01T00:59:11.884Z,18.63
2016-09-01T01:00:12.514Z,18.62
2016-09-01T01:01:11.843Z,18.7
2016-09-01T01:02:11.823Z,18.65
2016-09-01T01:03:11.797Z,18.63
2016-09-01T01:04:11.782Z,18.71
2016-09-01T01:05:11.762Z,18.66
2016-09-01T01:06:11.736Z,18.56
2016-09-01T01:07:11.717Z,18.55
2016-09-01T01:08:11.699Z,18.58
2016-09-01T01:09:11.676Z,18.58
2016-09-01T01:10:11.656Z,18.62
2016-09-01T01:11:11.634Z,18.56
2016-09-01T01:12:11.615Z,18.5
2016-09-01T01:13:11.594Z,18.52
2016-09-01T01:14:11.573Z,18.49
2016-09-01T01:15:11.558Z,18.35
2016-09-01T01:16:11.532Z,18.34
2016-09-01T01:17:11.507Z,18.33
2016-09-01T01:18:11.502Z,18.31
2016-09-01T01:19:11.473Z,18.28
2016-09-01T01:20:11.447Z,18.34
2016-09-01T01:21:11.426Z,18.29
2016-09-01T01:22:11.408Z,18.26
2016-09-01T01:23:11.385Z,18.23
2016-09-01T01:24:11.365Z,18.25
2016-09-01T01:25:11.351Z,18.23
2016-09-01T01:26:11.323Z,18.23
2016-09-01T01:27:11.303Z,18.22
2016-09-01T01:28:11.280Z,18.2
2016-09-01T01:29:11.262Z,18.2
2016-09-01T01:30:11.546Z,18.16
2016-09-01T01:31:11.222Z,18.25
2016-09-01T01:32:11.200Z,18.23
2016-09-01T01:33:11.176Z,18.22
2016-09-01T01:34:11.156Z,18.28
2016-09-01T01:35:11.136Z,18.28
2016-09-01T01:36:11.120Z,18.22
2016-09-01T01:37:11.095Z,18.25
2016-09-01T01:38:11.089Z,18.33
2016-09-01T01:39:11.055Z,18.28
2016-09-01T01:40:11.032Z,18.28
2016-09-01T01:41:11.014Z,18.31
2016-09-01T01:42:10.988Z,18.26
2016-09-01T01:43:10.967Z,18.33
2016-09-01T01:44:10.946Z,18.26
2016-09-01T01:45:10.928Z,18.34
2016-09-01T01:46:10.906Z,18.26
2016-09-01T01:47:10.890Z,18.34
2016-09-01T01:48:10.878Z,18.26
2016-09-01T01:49:10.845Z,18.31
2016-09-01T01:50:10.822Z,18.33
2016-09-01T01:51:10.803Z,18.33
2016-09-01T01:52:10.782Z,18.31
2016-09-01T01:53:10.758Z,18.23
2016-09-01T01:54:10.740Z,18.26
2016-09-01T01:55:10.727Z,18.28
2016-09-01T01:56:10.695Z,18.33
2016-09-01T01:57:10.677Z,18.26
2016-09-01T01:58:10.657Z,18.29
2016-09-01T01:59:10.635Z,18.28
2016-09-01T02:00:10.615Z,18.23
2016-09-01T02:01:10.591Z,18.26
2016-09-01T02:02:10.574Z,18.26
2016-09-01T02:03:10.551Z,18.26
2016-09-01T02:04:10.528Z,18.26
2016-09-01T02:05:10.875Z,18.26
2016-09-01T02:06:10.488Z,18.26
2016-09-01T02:07:10.465Z,18.28
2016-09-01T02:08:10.447Z,18.23
2016-09-01T02:09:10.427Z,18.22
2016-09-01T02:10:11.248Z,18.34
2016-09-01T02:11:10.397Z,18.29
2016-09-01T02:12:10.362Z,18.34
2016-09-01T02:13:10.342Z,18.35
2016-09-01T02:14:10.321Z,18.29
2016-09-01T02:15:10.298Z,18.25
2016-09-01T02:16:10.279Z,18.28
2016-09-01T02:17:10.259Z,18.29
2016-09-01T02:18:10.238Z,18.28
2016-09-01T02:19:10.217Z,18.26
2016-09-01T02:20:10.193Z,18.23
2016-09-01T02:21:10.173Z,18.26
2016-09-01T02:22:10.152Z,18.28
2016-09-01T02:23:10.131Z,18.22
2016-09-01T02:24:10.113Z,18.23
2016-09-01T02:25:10.091Z,18.26
2016-09-01T02:26:10.080Z,18.16
2016-09-01T02:27:10.054Z,18.15
2016-09-01T02:28:10.031Z,18.2
2016-09-01T02:29:10.008Z,18.18
2016-09-01T02:30:09.987Z,18.19
2016-09-01T02:31:09.962Z,18.18
2016-09-01T02:32:09.944Z,18.13
2016-09-01T02:33:09.921Z,18.15
2016-09-01T02:34:09.903Z,18.15
2016-09-01T02:35:09.882Z,18.13
2016-09-01T02:36:09.859Z,18.15
2016-09-01T02:37:09.840Z,18.15
2016-09-01T02:38:09.822Z,18.11
2016-09-01T02:39:09.794Z,18.16
2016-09-01T02:40:09.791Z,18.2
2016-09-01T02:41:09.756Z,18.18
2016-09-01T02:42:09.730Z,18.19
2016-09-01T02:43:09.720Z,18.16
2016-09-01T02:44:09.691Z,18.15
2016-09-01T02:45:09.668Z,18.11
2016-09-01T02:46:09.649Z,18.18
2016-09-01T02:47:09.629Z,18.18
2016-09-01T02:48:09.610Z,18.11
2016-09-01T02:49:09.588Z,18.11
2016-09-01T02:50:09.566Z,18.08
2016-09-01T02:51:09.545Z,18.15
2016-09-01T02:52:09.538Z,18.13
2016-09-01T02:53:09.500Z,18.15
2016-09-01T02:54:09.482Z,18.18
2016-09-01T02:55:09.461Z,18.16
2016-09-01T02:56:09.437Z,18.22
2016-09-01T02:57:09.424Z,18.18
2016-09-01T02:58:09.399Z,18.22
2016-09-01T02:59:09.378Z,18.22
2016-09-01T03:00:09.357Z,18.16
2016-09-01T03:01:09.333Z,18.11
2016-09-01T03:02:09.314Z,18.22
2016-09-01T03:03:09.293Z,18.16
2016-09-01T03:04:09.268Z,18.16
2016-09-01T03:05:09.251Z,18.13
2016-09-01T03:06:09.228Z,18.08
2016-09-01T03:07:09.205Z,18.05
2016-09-01T03:08:09.200Z,18.15
2016-09-01T03:09:09.166Z,18.08
2016-09-01T03:10:09.144Z,18.05
2016-09-01T03:11:09.124Z,18.05
2016-09-01T03:12:09.105Z,18.05
2016-09-01T03:13:09.079Z,18.11
2016-09-01T03:14:09.061Z,18.08
2016-09-01T03:15:09.039Z,18.08
2016-09-01T03:16:09.018Z,18.15
2016-09-01T03:17:08.998Z,18.13
2016-09-01T03:18:08.976Z,18.11
2016-09-01T03:19:08.957Z,18.2
2016-09-01T03:20:08.935Z,18.05
2016-09-01T03:21:09.607Z,18.11
2016-09-01T03:22:08.890Z,18.13
2016-09-01T03:23:08.873Z,18.08
2016-09-01T03:24:08.856Z,18.1
2016-09-01T03:25:08.834Z,18.13
2016-09-01T03:26:08.808Z,18.05
2016-09-01T03:27:08.785Z,18.08
2016-09-01T03:28:08.766Z,18.16
2016-09-01T03:29:08.744Z,18.11
2016-09-01T03:30:08.722Z,18.03
2016-09-01T03:31:08.703Z,18.05
2016-09-01T03:32:08.693Z,18.18
2016-09-01T03:33:08.658Z,18.04
2016-09-01T03:34:08.640Z,18.05
2016-09-01T03:35:08.627Z,18.08
2016-09-01T03:36:08.600Z,18.04
2016-09-01T03:37:08.577Z,18.08
2016-09-01T03:38:08.556Z,18.1
2016-09-01T03:39:08.532Z,18.03
2016-09-01T03:40:08.514Z,18.19
2016-09-01T03:41:08.492Z,18.08
2016-09-01T03:42:08.474Z,18.1
2016-09-01T03:43:08.449Z,18.04
2016-09-01T03:44:08.428Z,18.07
2016-09-01T03:45:08.982Z,18.11
2016-09-01T03:46:08.387Z,18.07
2016-09-01T03:47:08.366Z,17.97
2016-09-01T03:48:08.342Z,17.95
2016-09-01T03:49:08.324Z,18.03
2016-09-01T03:50:08.303Z,17.95
2016-09-01T03:51:08.279Z,18.1
2016-09-01T03:52:08.259Z,18.07
2016-09-01T03:53:08.240Z,17.95
2016-09-01T03:54:08.217Z,17.97
2016-09-01T03:55:08.211Z,18
2016-09-01T03:56:08.181Z,18.07
2016-09-01T03:57:08.152Z,17.92
2016-09-01T03:58:08.133Z,17.97
2016-09-01T03:59:08.113Z,18.03
2016-09-01T04:00:08.090Z,17.94
2016-09-01T04:01:08.070Z,18.04
2016-09-01T04:02:08.048Z,18.04
2016-09-01T04:03:08.025Z,18.11
2016-09-01T04:04:08.007Z,18.08
2016-09-01T04:05:07.983Z,18.11
2016-09-01T04:06:07.976Z,18.07
2016-09-01T04:07:07.946Z,18.05
2016-09-01T04:08:07.922Z,18.05
2016-09-01T04:09:07.898Z,18.15
2016-09-01T04:10:07.880Z,18.13
2016-09-01T04:11:07.859Z,18.16
2016-09-01T04:12:07.842Z,18.07
2016-09-01T04:13:07.816Z,18.11
2016-09-01T04:14:07.796Z,18.13
2016-09-01T04:15:07.772Z,18.2
2016-09-01T04:16:07.753Z,18.15
2016-09-01T04:17:07.732Z,18.19
2016-09-01T04:18:07.708Z,18.18
2016-09-01T04:19:07.700Z,18.19
2016-09-01T04:20:07.669Z,18.2
2016-09-01T04:21:07.646Z,18.2
2016-09-01T04:22:07.626Z,18.26
2016-09-01T04:23:07.608Z,18.2
2016-09-01T04:24:07.589Z,18.2
2016-09-01T04:25:07.566Z,18.19
2016-09-01T04:26:07.545Z,18.18
2016-09-01T04:27:07.526Z,18.19
2016-09-01T04:28:08.195Z,18.16
2016-09-01T04:29:07.494Z,18.18
2016-09-01T04:30:07.459Z,18.08
2016-09-01T04:31:07.440Z,18.05
2016-09-01T04:32:07.418Z,18.19
2016-09-01T04:33:07.397Z,18.1
2016-09-01T04:34:07.382Z,18.05
2016-09-01T04:35:07.402Z,18.08
2016-09-01T04:36:07.336Z,18.1
2016-09-01T04:37:07.314Z,18.07
2016-09-01T04:38:07.297Z,18.04
2016-09-01T04:39:07.274Z,18.11
2016-09-01T04:40:07.252Z,18.08
2016-09-01T04:41:07.231Z,18.08
2016-09-01T04:42:07.209Z,17.95
2016-09-01T04:43:07.189Z,17.95
2016-09-01T04:44:07.175Z,18
2016-09-01T04:45:07.147Z,17.98
2016-09-01T04:46:07.126Z,17.98
2016-09-01T04:47:07.105Z,17.97
2016-09-01T04:48:07.084Z,17.95
2016-09-01T04:49:07.063Z,17.94
2016-09-01T04:50:07.121Z,17.94
2016-09-01T04:51:07.021Z,17.98
2016-09-01T04:52:06.999Z,17.89
2016-09-01T04:53:06.990Z,17.98
2016-09-01T04:54:06.961Z,17.95
2016-09-01T04:55:06.937Z,17.9
2016-09-01T04:56:06.913Z,17.89
2016-09-01T04:57:06.893Z,17.83
2016-09-01T04:58:06.873Z,17.86
2016-09-01T04:59:06.861Z,17.97
2016-09-01T05:00:07.525Z,17.94
2016-09-01T05:01:06.810Z,17.78
2016-09-01T05:02:06.801Z,17.85
2016-09-01T05:03:06.769Z,17.85
2016-09-01T05:04:06.749Z,17.78
2016-09-01T05:05:07.680Z,17.85
2016-09-01T05:06:06.705Z,17.86
2016-09-01T05:07:06.685Z,17.85
2016-09-01T05:08:06.661Z,17.82
2016-09-01T05:09:06.643Z,17.9
2016-09-01T05:10:07.322Z,17.97
2016-09-01T05:11:06.599Z,17.83
2016-09-01T05:12:06.579Z,17.9
2016-09-01T05:13:06.559Z,17.89
2016-09-01T05:14:06.536Z,17.87
2016-09-01T05:15:06.607Z,17.95
2016-09-01T05:16:06.503Z,17.94
2016-09-01T05:17:07.174Z,17.9
2016-09-01T05:18:06.453Z,17.92
2016-09-01T05:19:06.434Z,17.8
2016-09-01T05:20:06.415Z,17.9
2016-09-01T05:21:06.403Z,17.95
2016-09-01T05:22:06.372Z,17.95
2016-09-01T05:23:07.143Z,17.9
2016-09-01T05:24:06.330Z,17.87
2016-09-01T05:25:06.393Z,17.8
2016-09-01T05:26:06.298Z,17.85
2016-09-01T05:27:06.307Z,17.92
2016-09-01T05:28:06.251Z,17.92
2016-09-01T05:29:06.342Z,17.92
2016-09-01T05:30:06.459Z,17.92
2016-09-01T05:31:06.249Z,17.92
2016-09-01T05:32:06.172Z,17.95
2016-09-01T05:33:06.143Z,17.98
2016-09-01T05:34:06.120Z,18
2016-09-01T05:35:06.119Z,17.95
2016-09-01T05:36:06.090Z,17.97
2016-09-01T05:37:06.804Z,18
2016-09-01T05:38:06.042Z,18.03
2016-09-01T05:39:06.018Z,18.07
2016-09-01T05:40:06.026Z,18.04
2016-09-01T05:41:06.767Z,18.15
2016-09-01T05:42:06.126Z,18.18
2016-09-01T05:43:06.049Z,18.15
2016-09-01T05:44:06.619Z,18.13
2016-09-01T05:45:05.903Z,18.13
2016-09-01T05:46:05.876Z,18.18
2016-09-01T05:47:05.854Z,18.19
2016-09-01T05:48:05.834Z,18.2
2016-09-01T05:49:05.817Z,18.22
2016-09-01T05:50:05.801Z,18.25
2016-09-01T05:51:05.770Z,18.33
2016-09-01T05:52:05.752Z,18.37
2016-09-01T05:53:05.732Z,18.35
2016-09-01T05:54:05.712Z,18.4
2016-09-01T05:55:05.699Z,18.44
2016-09-01T05:56:05.673Z,18.45
2016-09-01T05:57:05.649Z,18.45
2016-09-01T05:58:05.631Z,18.63
2016-09-01T05:59:05.613Z,18.52
2016-09-01T06:00:05.598Z,18.6
2016-09-01T06:01:05.571Z,18.58
2016-09-01T06:02:05.552Z,18.55
2016-09-01T06:03:05.532Z,18.66
2016-09-01T06:04:05.512Z,18.65
2016-09-01T06:05:05.493Z,18.7
2016-09-01T06:06:05.471Z,18.77
2016-09-01T06:07:05.452Z,18.77
2016-09-01T06:08:05.433Z,18.88
2016-09-01T06:09:05.414Z,18.83
2016-09-01T06:10:05.407Z,18.9
2016-09-01T06:11:06.063Z,18.92
2016-09-01T06:12:05.355Z,18.88
2016-09-01T06:13:05.345Z,18.9
2016-09-01T06:14:05.313Z,18.99
2016-09-01T06:15:05.297Z,18.99
2016-09-01T06:16:05.310Z,18.96
2016-09-01T06:17:05.255Z,19.16
2016-09-01T06:18:05.943Z,19.14
2016-09-01T06:19:05.217Z,19.12
2016-09-01T06:20:05.425Z,19.21
2016-09-01T06:21:05.188Z,19.18
2016-09-01T06:22:05.224Z,19.18
2016-09-01T06:23:05.140Z,19.21
2016-09-01T06:24:05.131Z,19.34
2016-09-01T06:25:05.105Z,19.31
2016-09-01T06:26:05.084Z,19.4
2016-09-01T06:27:05.067Z,19.36
2016-09-01T06:28:05.049Z,19.31
2016-09-01T06:29:05.026Z,19.49
2016-09-01T06:30:05.043Z,19.47
2016-09-01T06:31:04.996Z,19.51
2016-09-01T06:32:04.972Z,19.49
2016-09-01T06:33:04.955Z,19.49
2016-09-01T06:34:04.937Z,19.54
2016-09-01T06:35:06.774Z,19.54
2016-09-01T06:36:04.905Z,19.67
2016-09-01T06:37:04.889Z,19.69
2016-09-01T06:38:04.861Z,19.64
2016-09-01T06:39:04.845Z,19.71
2016-09-01T06:40:04.825Z,19.79
2016-09-01T06:41:04.808Z,19.76
2016-09-01T06:42:04.982Z,19.74
2016-09-01T06:43:04.770Z,19.74
2016-09-01T06:44:05.445Z,19.77
2016-09-01T06:45:04.814Z,19.84
2016-09-01T06:46:04.720Z,19.89
2016-09-01T06:47:04.698Z,19.96
2016-09-01T06:48:04.680Z,20.02
2016-09-01T06:49:04.660Z,19.92
2016-09-01T06:50:04.798Z,20.02
2016-09-01T06:51:04.629Z,20.02
2016-09-01T06:52:05.301Z,20.14
2016-09-01T06:53:04.592Z,20.13
2016-09-01T06:54:04.573Z,20.21
2016-09-01T06:55:05.444Z,20.26
2016-09-01T06:56:04.535Z,20.31
2016-09-01T06:57:04.526Z,20.29
2016-09-01T06:58:04.500Z,20.41
2016-09-01T06:59:04.492Z,20.4
2016-09-01T07:00:04.469Z,20.51
2016-09-01T07:01:04.474Z,20.56
2016-09-01T07:02:04.433Z,20.5
2016-09-01T07:03:04.431Z,20.56
2016-09-01T07:04:05.338Z,20.62
2016-09-01T07:05:04.707Z,20.63
2016-09-01T07:06:04.364Z,20.67
2016-09-01T07:07:04.346Z,20.63
2016-09-01T07:08:04.330Z,20.63
2016-09-01T07:09:04.314Z,20.63
2016-09-01T07:10:04.781Z,20.59
2016-09-01T07:11:04.280Z,20.62
2016-09-01T07:12:04.267Z,20.56
2016-09-01T07:13:04.303Z,20.6
2016-09-01T07:14:04.231Z,20.62
2016-09-01T07:15:04.209Z,20.66
2016-09-01T07:16:04.194Z,20.6
2016-09-01T07:17:04.193Z,20.67
2016-09-01T07:18:04.165Z,20.66
2016-09-01T07:19:04.142Z,20.65
2016-09-01T07:20:04.126Z,20.63
2016-09-01T07:21:05.067Z,20.72
2016-09-01T07:22:04.093Z,20.69
2016-09-01T07:23:04.082Z,20.74
2016-09-01T07:24:04.385Z,20.8
2016-09-01T07:25:04.042Z,20.9
2016-09-01T07:26:04.025Z,20.92
2016-09-01T07:27:04.700Z,20.9
2016-09-01T07:28:03.992Z,20.93
2016-09-01T07:29:03.977Z,20.97
2016-09-01T07:30:05.047Z,21.03
2016-09-01T07:31:03.944Z,21.09
2016-09-01T07:32:03.932Z,20.97
2016-09-01T07:33:03.910Z,20.97
2016-09-01T07:34:03.892Z,20.88
2016-09-01T07:35:04.569Z,20.95
2016-09-01T07:36:03.857Z,21
2016-09-01T07:37:03.843Z,21.02
2016-09-01T07:38:03.827Z,20.88
2016-09-01T07:39:03.808Z,20.9
2016-09-01T07:40:03.795Z,20.93
2016-09-01T07:41:03.783Z,20.88
2016-09-01T07:42:03.760Z,20.93
2016-09-01T07:43:03.752Z,20.95
2016-09-01T07:44:03.727Z,20.9
2016-09-01T07:45:03.710Z,20.87
2016-09-01T07:46:03.692Z,20.92
2016-09-01T07:47:03.676Z,20.95
2016-09-01T07:48:03.659Z,20.95
2016-09-01T07:49:03.642Z,20.88
2016-09-01T07:50:03.626Z,20.9
2016-09-01T07:51:03.609Z,20.85
2016-09-01T07:52:03.646Z,20.88
2016-09-01T07:53:03.581Z,20.92
2016-09-01T07:54:03.564Z,20.87
2016-09-01T07:55:03.541Z,20.93
2016-09-01T07:56:03.523Z,20.92
2016-09-01T07:57:03.504Z,20.95
2016-09-01T07:58:03.494Z,20.88
2016-09-01T07:59:03.543Z,20.92
2016-09-01T08:00:04.368Z,20.95
2016-09-01T08:01:03.466Z,20.92
2016-09-01T08:02:03.420Z,20.93
2016-09-01T08:03:03.400Z,20.9
2016-09-01T08:04:03.384Z,20.88
2016-09-01T08:05:03.365Z,20.87
2016-09-01T08:06:03.356Z,20.88
2016-09-01T08:07:03.335Z,20.92
2016-09-01T08:08:03.313Z,20.9
2016-09-01T08:09:03.303Z,20.95
2016-09-01T08:10:03.281Z,20.88
2016-09-01T08:11:03.349Z,20.85
2016-09-01T08:12:03.246Z,20.95
2016-09-01T08:13:03.227Z,20.93
2016-09-01T08:14:04.209Z,20.93
2016-09-01T08:15:03.193Z,20.87
2016-09-01T08:16:03.175Z,20.96
2016-09-01T08:17:03.157Z,20.93
2016-09-01T08:18:03.142Z,21.12
2016-09-01T08:19:03.125Z,21.06
2016-09-01T08:20:03.108Z,21.17
2016-09-01T08:21:03.090Z,21.29
2016-09-01T08:22:03.074Z,21.29
2016-09-01T08:23:03.056Z,21.25
2016-09-01T08:24:03.036Z,21.4
2016-09-01T08:25:03.017Z,21.25
2016-09-01T08:26:03.003Z,21.42
2016-09-01T08:27:02.986Z,21.45
2016-09-01T08:28:02.967Z,21.42
2016-09-01T08:29:02.956Z,21.45
2016-09-01T08:30:02.932Z,21.55
2016-09-01T08:31:02.940Z,21.52
2016-09-01T08:32:02.898Z,21.6
2016-09-01T08:33:02.884Z,21.7
2016-09-01T08:34:02.866Z,21.66
2016-09-01T08:35:04.251Z,21.64
2016-09-01T08:36:02.829Z,21.7
2016-09-01T08:37:02.814Z,21.73
2016-09-01T08:38:02.797Z,21.73
2016-09-01T08:39:03.482Z,21.76
2016-09-01T08:40:02.764Z,21.82
2016-09-01T08:41:02.744Z,21.85
2016-09-01T08:42:02.730Z,21.89
2016-09-01T08:43:02.709Z,21.82
2016-09-01T08:44:02.694Z,21.95
2016-09-01T08:45:03.376Z,21.95
2016-09-01T08:46:03.360Z,22.07
2016-09-01T08:47:02.645Z,22.08
2016-09-01T08:48:02.629Z,22.06
2016-09-01T08:49:02.643Z,22.08
2016-09-01T08:50:02.598Z,22.13
2016-09-01T08:51:02.576Z,22.14
2016-09-01T08:52:03.118Z,22.2
2016-09-01T08:53:02.549Z,22.22
2016-09-01T08:54:02.527Z,22.18
2016-09-01T08:55:02.545Z,22.3
2016-09-01T08:56:02.495Z,22.28
2016-09-01T08:57:02.481Z,22.28
2016-09-01T08:58:02.461Z,22.39
2016-09-01T08:59:02.445Z,22.43
2016-09-01T09:00:02.426Z,22.43
2016-09-01T09:01:02.551Z,22.38
2016-09-01T09:02:02.414Z,22.47
2016-09-01T09:03:02.378Z,22.5
2016-09-01T09:04:02.364Z,22.57
2016-09-01T09:05:02.346Z,22.59
2016-09-01T09:06:02.330Z,22.57
2016-09-01T09:07:02.313Z,22.53
2016-09-01T09:08:02.302Z,22.59
2016-09-01T09:09:02.278Z,22.5
2016-09-01T09:10:02.264Z,22.48
2016-09-01T09:11:02.244Z,22.55
2016-09-01T09:12:02.233Z,22.63
2016-09-01T09:13:02.214Z,22.7
2016-09-01T09:14:02.198Z,22.65
2016-09-01T09:15:02.186Z,22.69
2016-09-01T09:16:02.174Z,22.66
2016-09-01T09:17:02.855Z,22.65
2016-09-01T09:18:02.140Z,22.72
2016-09-01T09:19:02.119Z,22.76
2016-09-01T09:20:02.101Z,22.81
2016-09-01T09:21:02.086Z,22.85
2016-09-01T09:22:02.075Z,22.91
2016-09-01T09:23:02.051Z,22.9
2016-09-01T09:24:02.038Z,23.06
2016-09-01T09:25:02.020Z,23.08
2016-09-01T09:26:02.707Z,23.17
2016-09-01T09:27:01.986Z,23.12
2016-09-01T09:28:01.975Z,23.12
2016-09-01T09:29:01.957Z,23.15
2016-09-01T09:30:02.028Z,23.2
2016-09-01T09:31:01.944Z,23.24
2016-09-01T09:32:02.005Z,23.1
2016-09-01T09:33:02.587Z,23.12
2016-09-01T09:34:01.876Z,23.21
2016-09-01T09:35:01.858Z,23.17
2016-09-01T09:36:01.846Z,23.23
2016-09-01T09:37:01.828Z,23.27
2016-09-01T09:38:01.809Z,23.28
2016-09-01T09:39:01.796Z,23.39
2016-09-01T09:40:01.781Z,23.41
2016-09-01T09:41:01.762Z,23.43
2016-09-01T09:42:01.753Z,23.54
2016-09-01T09:43:01.732Z,23.54
2016-09-01T09:44:01.714Z,23.62
2016-09-01T09:45:02.477Z,23.62
2016-09-01T09:46:01.685Z,23.55
2016-09-01T09:47:02.610Z,23.66
2016-09-01T09:48:02.933Z,23.63
2016-09-01T09:49:01.860Z,23.73
2016-09-01T09:50:01.620Z,23.73
2016-09-01T09:51:01.614Z,23.84
2016-09-01T09:52:01.634Z,23.8
2016-09-01T09:53:01.575Z,23.81
2016-09-01T09:54:01.559Z,23.86
2016-09-01T09:55:01.547Z,23.78
2016-09-01T09:56:02.224Z,23.88
2016-09-01T09:57:01.513Z,23.81
2016-09-01T09:58:01.497Z,23.76
2016-09-01T09:59:01.484Z,23.81
2016-09-01T10:00:01.468Z,23.78
2016-09-01T10:01:01.450Z,23.77
2016-09-01T10:02:01.445Z,23.77
2016-09-01T10:03:01.425Z,23.77
2016-09-01T10:04:01.409Z,23.83
2016-09-01T10:05:01.391Z,23.83
2016-09-01T10:06:01.377Z,23.81
2016-09-01T10:07:01.359Z,23.8
2016-09-01T10:08:01.348Z,23.77
2016-09-01T10:09:01.332Z,23.8
2016-09-01T10:10:01.324Z,23.61
2016-09-01T10:11:01.295Z,23.62
2016-09-01T10:12:01.283Z,23.69
2016-09-01T10:13:01.267Z,23.73
2016-09-01T10:14:01.251Z,23.63
2016-09-01T10:15:01.244Z,23.69
2016-09-01T10:16:01.220Z,23.62
2016-09-01T10:17:01.206Z,23.55
2016-09-01T10:18:01.190Z,23.62
2016-09-01T10:19:01.174Z,23.62
2016-09-01T10:20:01.162Z,23.71
2016-09-01T10:21:01.205Z,23.76
2016-09-01T10:22:01.140Z,23.77
2016-09-01T10:23:01.132Z,23.8
2016-09-01T10:24:01.103Z,23.78
2016-09-01T10:25:01.082Z,23.81
2016-09-01T10:26:01.068Z,23.99
2016-09-01T10:27:01.047Z,24.01
2016-09-01T10:28:01.036Z,23.98
2016-09-01T10:29:01.021Z,23.98
2016-09-01T10:30:01.003Z,24.06
2016-09-01T10:31:00.992Z,24.13
2016-09-01T10:32:00.972Z,24.11
2016-09-01T10:33:00.958Z,24.26
2016-09-01T10:34:00.954Z,24.26
2016-09-01T10:35:00.928Z,24.45
2016-09-01T10:36:00.917Z,24.48
2016-09-01T10:37:00.900Z,24.47
2016-09-01T10:38:00.884Z,24.48
2016-09-01T10:39:00.869Z,24.55
2016-09-01T10:40:00.851Z,24.35
2016-09-01T10:41:00.838Z,24.35
2016-09-01T10:42:00.835Z,24.47
2016-09-01T10:43:00.810Z,24.43
2016-09-01T10:44:00.794Z,24.55
2016-09-01T10:45:00.780Z,24.66
2016-09-01T10:46:00.765Z,24.84
2016-09-01T10:47:00.750Z,24.85
2016-09-01T10:48:00.748Z,24.84
2016-09-01T10:49:00.724Z,24.91
2016-09-01T10:50:00.717Z,24.88
2016-09-01T10:51:00.780Z,24.89
2016-09-01T10:52:00.680Z,24.96
2016-09-01T10:53:00.667Z,24.98
2016-09-01T10:54:00.651Z,24.89
2016-09-01T10:55:00.636Z,24.92
2016-09-01T10:56:00.625Z,24.95
2016-09-01T10:57:00.607Z,24.93
2016-09-01T10:58:00.592Z,24.88
2016-09-01T10:59:00.576Z,24.91
2016-09-01T11:00:00.564Z,24.91
2016-09-01T11:01:00.566Z,24.99
2016-09-01T11:02:00.535Z,24.96
2016-09-01T11:03:00.528Z,24.93
2016-09-01T11:04:00.514Z,24.88
2016-09-01T11:05:00.498Z,24.98
2016-09-01T11:06:00.490Z,25.07
2016-09-01T11:07:00.468Z,25.03
2016-09-01T11:08:00.451Z,25.08
2016-09-01T11:09:00.439Z,25.06
2016-09-01T11:10:00.420Z,25.1
2016-09-01T11:11:00.415Z,25.16
2016-09-01T11:12:00.394Z,25.22
2016-09-01T11:13:00.377Z,25.23
2016-09-01T11:14:00.365Z,25.36
2016-09-01T11:15:00.356Z,25.32
2016-09-01T11:16:00.338Z,25.41
2016-09-01T11:17:00.327Z,25.43
2016-09-01T11:18:00.501Z,25.41
2016-09-01T11:19:00.320Z,25.51
2016-09-01T11:20:00.284Z,25.53
2016-09-01T11:21:00.267Z,25.69
2016-09-01T11:22:00.995Z,25.77
2016-09-01T11:23:00.416Z,25.83
2016-09-01T11:24:00.228Z,25.83
2016-09-01T11:25:00.214Z,25.85
2016-09-01T11:26:00.206Z,25.88
2016-09-01T11:27:00.189Z,25.95
2016-09-01T11:28:00.176Z,26.1
2016-09-01T11:29:00.160Z,26.06
2016-09-01T11:30:00.172Z,26.19
2016-09-01T11:31:00.831Z,26.31
2016-09-01T11:32:00.127Z,26.36
2016-09-01T11:33:00.118Z,26.41
2016-09-01T11:34:00.104Z,26.43
2016-09-01T11:35:00.091Z,26.48
2016-09-01T11:36:00.083Z,26.53
2016-09-01T11:37:00.083Z,26.51
2016-09-01T11:38:00.063Z,26.4
2016-09-01T11:39:00.050Z,26.37
2016-09-01T11:40:00.033Z,26.34
2016-09-01T11:41:00.019Z,26.43
2016-09-01T11:42:00.010Z,26.6
2016-09-01T11:42:59.997Z,26.68
2016-09-01T11:43:59.983Z,26.66
2016-09-01T11:44:59.983Z,26.6
2016-09-01T11:45:59.963Z,26.6
2016-09-01T11:46:59.951Z,26.53
2016-09-01T11:47:59.940Z,26.45
2016-09-01T11:48:59.926Z,26.45
2016-09-01T11:49:59.917Z,26.41
2016-09-01T11:50:59.905Z,26.36
2016-09-01T11:51:59.894Z,26.34
2016-09-01T11:52:59.883Z,26.21
2016-09-01T11:53:59.872Z,26.05
2016-09-01T11:55:00.770Z,26.02
2016-09-01T11:55:59.856Z,25.98
2016-09-01T11:57:00.526Z,26.03
2016-09-01T11:57:59.830Z,25.96
2016-09-01T11:58:59.812Z,25.88
2016-09-01T11:59:59.796Z,25.91
2016-09-01T12:00:59.787Z,25.85
2016-09-01T12:01:59.774Z,25.81
2016-09-01T12:02:59.771Z,25.8
2016-09-01T12:03:59.757Z,25.84
2016-09-01T12:04:59.733Z,25.73
2016-09-01T12:05:59.736Z,25.83
2016-09-01T12:06:59.711Z,25.83
2016-09-01T12:07:59.696Z,25.85
2016-09-01T12:08:59.685Z,25.84
2016-09-01T12:09:59.673Z,25.9
2016-09-01T12:10:59.659Z,25.83
2016-09-01T12:12:00.349Z,25.72
2016-09-01T12:12:59.632Z,25.75
2016-09-01T12:13:59.622Z,25.69
2016-09-01T12:14:59.608Z,25.75
2016-09-01T12:15:59.595Z,25.81
2016-09-01T12:16:59.582Z,25.87
2016-09-01T12:17:59.570Z,25.9
2016-09-01T12:18:59.560Z,25.9
2016-09-01T12:19:59.557Z,25.95
2016-09-01T12:20:59.530Z,25.96
2016-09-01T12:21:59.516Z,26.05
2016-09-01T12:22:59.583Z,26.09
2016-09-01T12:23:59.560Z,25.98
2016-09-01T12:24:59.480Z,26.07
2016-09-01T12:25:59.470Z,26.06
2016-09-01T12:26:59.459Z,25.98
2016-09-01T12:27:59.443Z,25.95
2016-09-01T12:28:59.429Z,25.9
2016-09-01T12:29:59.413Z,25.91
2016-09-01T12:30:59.408Z,25.98
2016-09-01T12:31:59.403Z,26.06
2016-09-01T12:32:59.375Z,26.15
2016-09-01T12:33:59.365Z,26.28
2016-09-01T12:34:59.355Z,26.26
2016-09-01T12:35:59.342Z,26.28
2016-09-01T12:36:59.340Z,26.45
2016-09-01T12:37:59.315Z,26.41
2016-09-01T12:38:59.305Z,26.44
2016-09-01T12:39:59.292Z,26.52
2016-09-01T12:40:59.284Z,26.73
2016-09-01T12:41:59.269Z,26.68
2016-09-01T12:42:59.254Z,26.63
2016-09-01T12:43:59.240Z,26.6
2016-09-01T12:44:59.230Z,26.78
2016-09-01T12:45:59.229Z,26.73
2016-09-01T12:46:59.215Z,26.9
2016-09-01T12:47:59.192Z,26.9
2016-09-01T12:48:59.177Z,26.88
2016-09-01T12:49:59.167Z,26.85
2016-09-01T12:50:59.155Z,26.73
2016-09-01T12:51:59.332Z,26.88
2016-09-01T12:52:59.130Z,26.81
2016-09-01T12:53:59.117Z,26.89
2016-09-01T12:54:59.105Z,26.9